TimeHST,TemperatureF,Dew PointF,Humidity,Sea Level PressureIn,VisibilityMPH,Wind Direction,Wind SpeedMPH,Gust SpeedMPH,PrecipitationIn,Events,Conditions,WindDirDegrees,DateUTC
12:53 AM,75.9,64.0,67,29.94,10.0,East,4.6,-,N/A,,Partly Cloudy,100,2012-11-05 10:53:00
1:53 AM,77.0,62.1,60,29.94,10.0,Calm,Calm,-,N/A,,Overcast,0,2012-11-05 11:53:00
2:53 AM,75.9,61.0,60,29.92,10.0,NE,4.6,-,N/A,,Partly Cloudy,40,2012-11-05 12:53:00
3:53 AM,73.9,60.1,62,29.91,10.0,NNE,3.5,-,N/A,,Clear,20,2012-11-05 13:53:00
4:53 AM,73.9,62.1,66,29.91,10.0,ESE,3.5,-,N/A,,Clear,120,2012-11-05 14:53:00
5:53 AM,72.0,62.1,71,29.92,10.0,ENE,3.5,-,N/A,,Clear,70,2012-11-05 15:53:00
6:53 AM,72.0,61.0,68,29.93,10.0,ESE,8.1,-,N/A,,Clear,120,2012-11-05 16:53:00
7:53 AM,78.1,62.1,58,29.94,10.0,SE,4.6,-,N/A,,Clear,130,2012-11-05 17:53:00
8:53 AM,81.0,64.0,56,29.96,10.0,West,3.5,-,N/A,,Clear,260,2012-11-05 18:53:00
9:53 AM,81.0,64.9,58,29.96,10.0,WSW,6.9,-,N/A,,Clear,240,2012-11-05 19:53:00
10:53 AM,82.9,64.9,54,29.93,10.0,WSW,8.1,-,N/A,,Clear,240,2012-11-05 20:53:00
11:53 AM,82.9,66.0,56,29.90,10.0,SW,9.2,-,N/A,,Clear,230,2012-11-05 21:53:00
12:53 PM,84.0,64.9,53,29.88,10.0,WSW,6.9,-,N/A,,Clear,250,2012-11-05 22:53:00
1:53 PM,84.0,64.0,51,29.86,10.0,WSW,6.9,-,N/A,,Clear,250,2012-11-05 23:53:00
2:53 PM,82.9,68.0,60,29.84,10.0,Variable,6.9,-,N/A,,Clear,0,2012-11-06 00:53:00
3:53 PM,84.0,68.0,58,29.85,10.0,Variable,6.9,-,N/A,,Clear,0,2012-11-06 01:53:00
4:53 PM,82.9,66.0,56,29.86,10.0,South,11.5,-,N/A,,Clear,180,2012-11-06 02:53:00
5:53 PM,81.0,64.9,58,29.87,10.0,SSE,11.5,-,N/A,,Clear,160,2012-11-06 03:53:00
6:53 PM,80.1,66.0,62,29.89,10.0,SSE,11.5,-,N/A,,Clear,160,2012-11-06 04:53:00
7:53 PM,79.0,66.9,66,29.91,10.0,ESE,5.8,-,N/A,,Clear,120,2012-11-06 05:53:00
8:53 PM,79.0,68.0,69,29.92,10.0,SE,8.1,-,N/A,,Mostly Cloudy,140,2012-11-06 06:53:00
9:53 PM,79.0,66.9,66,29.92,10.0,ESE,5.8,-,N/A,,Overcast,120,2012-11-06 07:53:00
10:53 PM,79.0,66.9,66,29.91,10.0,South,3.5,-,N/A,,Overcast,170,2012-11-06 08:53:00
11:53 PM,79.0,68.0,69,29.90,10.0,SSE,6.9,-,N/A,,Overcast,160,2012-11-06 09:53:00